Time;durP1;ratioP1;P1;durP2;ratioP2;P2;SDS_P1;SDS_P2;PMS_P1;PMS_P2;Temp;Humidity;BMP_temperature;BMP_pressure;BME280_temperature;BME280_humidity;BME280_pressure;Samples;Min_cycle;Max_cycle;Signal;HPM_P1;HPM_P2
2021/07/08 00:02:07;;;;;;;4.93;2.13;;;;;;;17.42;82.39;100670.81;21154852;28;20398;-70
2021/07/08 00:12:10;;;;;;;6.30;2.40;;;;;;;17.37;82.43;100664.81;21154768;28;20051;-69
2021/07/08 00:22:12;;;;;;;5.30;2.40;;;;;;;17.35;82.97;100640.22;21155211;28;20606;-69
2021/07/08 00:32:15;;;;;;;5.50;2.60;;;;;;;17.23;83.33;100659.22;21153101;27;20047;-70
2021/07/08 00:42:17;;;;;;;6.60;2.40;;;;;;;17.03;84.58;100639.69;21152372;28;20047;-70
2021/07/08 00:52:19;;;;;;;7.15;2.97;;;;;;;17.07;84.25;100661.59;21174135;27;20100;-69
2021/07/08 01:02:27;;;;;;;8.10;2.60;;;;;;;16.86;84.51;100648.28;21322518;27;20496;-69
2021/07/08 01:12:29;;;;;;;7.30;3.15;;;;;;;16.79;84.80;100640.63;21320905;27;20043;-69
2021/07/08 01:22:30;;;;;;;5.22;2.35;;;;;;;16.67;84.79;100648.06;21339607;27;20054;-69
2021/07/08 01:32:33;;;;;;;5.07;2.70;;;;;;;16.57;85.33;100636.06;21337790;27;20103;-70
2021/07/08 01:42:35;;;;;;;5.80;2.97;;;;;;;16.59;85.58;100639.53;21337874;27;20039;-69
2021/07/08 01:52:37;;;;;;;5.82;2.88;;;;;;;16.51;85.51;100641.59;21318934;27;20035;-68
2021/07/08 02:02:40;;;;;;;8.13;3.35;;;;;;;16.58;85.35;100616.69;21250176;27;20091;-70
2021/07/08 02:12:45;;;;;;;9.50;3.40;;;;;;;16.76;84.75;100622.22;21249871;27;20054;-69
2021/07/08 02:22:48;;;;;;;5.45;2.97;;;;;;;16.85;84.67;100628.00;21249107;27;20135;-70
2021/07/08 02:32:53;;;;;;;7.28;3.10;;;;;;;16.91;84.31;100611.03;21247239;27;20051;-70
2021/07/08 02:42:56;;;;;;;6.57;2.93;;;;;;;16.85;84.82;100611.28;21247255;27;20047;-70
2021/07/08 02:52:58;;;;;;;7.50;2.80;;;;;;;16.98;84.50;100635.50;21266465;27;20601;-70
2021/07/08 03:03:00;;;;;;;6.85;2.92;;;;;;;16.90;85.15;100662.22;21330736;27;20067;-70
2021/07/08 03:13:02;;;;;;;4.72;2.70;;;;;;;16.81;84.56;100665.22;21330751;27;20051;-70
2021/07/08 03:23:06;;;;;;;6.47;2.90;;;;;;;16.74;85.01;100651.38;21329502;27;20047;-70
2021/07/08 03:33:08;;;;;;;5.40;2.88;;;;;;;16.78;85.15;100642.41;21310052;27;20043;-70
2021/07/08 03:43:10;;;;;;;6.72;3.13;;;;;;;16.66;85.35;100614.59;21327662;27;20480;-70
2021/07/08 03:53:12;;;;;;;5.40;2.47;;;;;;;16.65;86.04;100580.28;21304206;27;20390;-68
2021/07/08 04:03:16;;;;;;;5.50;2.80;;;;;;;16.68;85.52;100590.75;21240005;27;20039;-69
2021/07/08 04:13:20;;;;;;;7.47;2.83;;;;;;;16.73;85.84;100586.19;21239168;27;20100;-70
2021/07/08 04:23:22;;;;;;;5.00;2.22;;;;;;;16.80;85.33;100603.53;21240354;27;20095;-70
2021/07/08 04:33:24;;;;;;;7.57;2.80;;;;;;;16.81;85.30;100607.88;21238581;27;20043;-69
2021/07/08 04:43:26;;;;;;;5.45;2.95;;;;;;;17.06;84.55;100630.78;21238329;27;20072;-70
2021/07/08 04:53:28;;;;;;;6.40;3.13;;;;;;;17.06;83.76;100620.19;21262273;27;20066;-71
2021/07/08 05:03:29;;;;;;;5.82;2.90;;;;;;;17.13;83.82;100614.59;21323112;27;20046;-70
2021/07/08 05:13:31;;;;;;;4.45;2.65;;;;;;;17.34;83.95;100639.38;21322710;27;20055;-70
2021/07/08 05:23:34;;;;;;;5.32;2.80;;;;;;;17.27;84.05;100642.28;21315573;27;20043;-70
2021/07/08 05:33:36;;;;;;;8.32;3.45;;;;;;;17.44;83.49;100656.59;21313726;27;20095;-70
2021/07/08 05:43:38;;;;;;;5.07;3.33;;;;;;;17.62;83.03;100675.28;21321223;27;20046;-70
2021/07/08 05:53:39;;;;;;;5.15;2.83;;;;;;;17.67;83.14;100690.06;21294823;27;20047;-69
2021/07/08 06:03:41;;;;;;;6.40;2.70;;;;;;;18.00;82.29;100725.88;21180750;27;20085;-69
2021/07/08 06:13:43;;;;;;;7.80;3.08;;;;;;;18.12;81.97;100713.00;21163778;28;20056;-69
2021/07/08 06:23:45;;;;;;;6.25;2.47;;;;;;;18.17;80.91;100705.72;21163575;28;20416;-69
2021/07/08 06:33:47;;;;;;;7.07;3.00;;;;;;;18.35;80.51;100735.00;21161764;28;20043;-69
2021/07/08 06:43:48;;;;;;;5.15;2.20;;;;;;;18.56;79.51;100723.47;21161508;28;20047;-69
2021/07/08 06:53:51;;;;;;;7.07;2.72;;;;;;;18.77;80.03;100726.13;21188836;27;20069;-69
2021/07/08 07:03:53;;;;;;;8.43;2.85;;;;;;;19.36;79.64;100718.13;21243466;27;20083;-69
2021/07/08 07:13:54;;;;;;;6.40;2.60;;;;;;;19.22;78.07;100708.13;21246828;27;20054;-69
2021/07/08 07:23:56;;;;;;;5.55;2.30;;;;;;;19.94;75.64;100707.34;21244807;27;20043;-70
2021/07/08 07:33:58;;;;;;;6.32;2.60;;;;;;;20.38;73.22;100696.25;21243998;27;20035;-70
2021/07/08 07:44:00;;;;;;;8.50;2.65;;;;;;;20.67;71.39;100702.75;21225438;27;20550;-70
2021/07/08 07:54:02;;;;;;;5.70;2.40;;;;;;;20.60;72.44;100704.03;21242394;27;20043;-70
2021/07/08 08:04:04;;;;;;;5.25;2.17;;;;;;;20.53;73.22;100720.38;21241226;27;20069;-69
2021/07/08 08:14:06;;;;;;;5.63;2.10;;;;;;;20.63;71.47;100701.19;21241130;27;20084;-69
2021/07/08 08:24:08;;;;;;;4.50;2.10;;;;;;;20.84;71.05;100711.63;21238956;27;20472;-69
2021/07/08 08:34:09;;;;;;;4.07;1.90;;;;;;;21.23;69.69;100722.81;21238078;27;20119;-69
2021/07/08 08:44:11;;;;;;;4.45;2.10;;;;;;;21.19;70.45;100718.59;21233871;27;20050;-69
2021/07/08 08:54:13;;;;;;;4.25;1.90;;;;;;;21.17;71.55;100744.41;21237953;27;20098;-70
2021/07/08 09:04:34;;;;;;;3.83;1.80;;;;;;;20.96;75.93;100766.88;21237372;28;20497;-69
2021/07/08 09:14:36;;;;;;;3.75;2.25;;;;;;;20.63;79.89;100769.50;21238518;28;20039;-68
2021/07/08 09:24:38;;;;;;;5.22;2.38;;;;;;;20.49;81.33;100789.69;21238329;28;20074;-68
2021/07/08 09:34:41;;;;;;;7.00;2.67;;;;;;;20.38;84.17;100791.16;21239243;27;20607;-68
2021/07/08 09:44:44;;;;;;;5.60;3.20;;;;;;;19.92;83.34;100802.22;21247599;27;20397;-69
2021/07/08 10:04:50;;;;;;;10.90;6.27;;;;;;;19.21;86.80;100790.47;21249605;27;20096;-68
2021/07/08 10:14:52;;;;;;;11.98;6.63;;;;;;;19.54;86.34;100801.34;21249479;27;20123;-69
2021/07/08 10:24:53;;;;;;;10.05;5.38;;;;;;;19.67;86.14;100799.03;21248319;27;20115;-69
2021/07/08 10:34:55;;;;;;;9.63;4.72;;;;;;;19.41;87.20;100789.59;21247200;27;20043;-69
2021/07/08 10:44:57;;;;;;;8.57;4.43;;;;;;;19.75;84.99;100772.97;21246584;27;20047;-69
2021/07/08 10:54:59;;;;;;;8.43;4.35;;;;;;;19.80;86.17;100783.38;21245646;27;20097;-69
2021/07/08 11:05:00;;;;;;;9.68;3.47;;;;;;;19.98;82.97;100791.34;21245411;27;20035;-68
2021/07/08 11:15:04;;;;;;;7.30;3.53;;;;;;;19.85;82.61;100805.28;21246401;27;20122;-67
2021/07/08 11:25:08;;;;;;;7.57;4.70;;;;;;;19.69;86.16;100802.47;21255466;27;20055;-66
2021/07/08 11:35:20;;;;;;;5.68;3.63;;;;;;;19.55;86.17;100812.88;21243034;27;20066;-67
2021/07/08 11:45:25;;;;;;;7.47;4.10;;;;;;;19.16;86.76;100801.34;21223912;27;20397;-67
2021/07/08 11:55:29;;;;;;;7.50;3.90;;;;;;;19.27;86.92;100798.19;21200706;27;20104;-67
2021/07/08 12:05:30;;;;;;;6.35;3.40;;;;;;;19.36;86.58;100796.91;21155212;28;20043;-69
2021/07/08 12:15:41;;;;;;;6.07;3.33;;;;;;;19.45;84.71;100777.88;21153148;28;20056;-67
2021/07/08 12:25:43;;;;;;;6.50;2.95;;;;;;;19.41;83.76;100776.31;21153951;28;20047;-68
2021/07/08 12:35:50;;;;;;;5.38;3.05;;;;;;;19.09;84.77;100762.72;21152080;28;20040;-68
2021/07/08 12:45:51;;;;;;;5.50;3.17;;;;;;;19.61;84.50;100741.75;21153498;28;20104;-68
2021/07/08 12:55:56;;;;;;;3.83;1.70;;;;;;;20.60;76.17;100733.31;21196487;27;20092;-68
2021/07/08 13:06:14;;;;;;;4.85;2.00;;;;;;;20.68;78.09;100730.22;21234318;28;20043;-68
2021/07/08 13:16:18;;;;;;;3.55;1.40;;;;;;;20.67;76.39;100732.03;21250392;27;20455;-69
2021/07/08 13:26:22;;;;;;;3.47;1.48;;;;;;;20.59;79.02;100744.84;21251559;27;20127;-69
2021/07/08 13:36:28;;;;;;;;;;;;;;;20.75;78.64;100761.75;21250879;27;20116;-69
2021/07/08 13:46:35;;;;;;;5.03;2.22;;;;;;;20.15;79.69;100763.03;21252084;27;19919;-70
2021/07/08 13:56:37;;;;;;;4.43;1.50;;;;;;;19.95;79.74;100756.06;21249843;27;20075;-69
2021/07/08 14:06:39;;;;;;;5.28;1.83;;;;;;;20.07;79.68;100762.56;21248131;27;20046;-69
2021/07/08 14:16:41;;;;;;;3.53;1.75;;;;;;;20.22;79.28;100756.50;21250680;27;20542;-69
2021/07/08 14:26:43;;;;;;;3.72;1.90;;;;;;;20.71;79.34;100738.06;21248823;27;20484;-69
2021/07/08 14:36:44;;;;;;;5.20;2.60;;;;;;;20.83;78.56;100733.88;21247587;27;20570;-69
2021/07/08 14:46:53;;;;;;;5.03;2.30;;;;;;;21.00;75.63;100716.06;21248437;27;20042;-70
2021/07/08 14:56:56;;;;;;;3.42;1.70;;;;;;;21.51;76.12;100710.63;21244772;27;20039;-66
2021/07/08 15:06:58;;;;;;;3.25;1.90;;;;;;;21.29;73.17;100734.06;21242984;27;20073;-67
2021/07/08 15:16:59;;;;;;;2.97;1.70;;;;;;;21.49;74.60;100724.03;21244003;27;20043;-68
2021/07/08 15:27:01;;;;;;;5.20;2.10;;;;;;;20.96;75.44;100710.97;21241676;27;20213;-67
2021/07/08 15:37:03;;;;;;;3.83;1.90;;;;;;;21.57;74.31;100731.63;21240806;27;20043;-69
2021/07/08 15:47:05;;;;;;;3.90;2.25;;;;;;;21.12;73.97;100716.34;21240484;27;20545;-68
2021/07/08 15:57:08;;;;;;;5.65;2.33;;;;;;;21.42;74.54;100700.53;21237948;27;20134;-69
2021/07/08 16:07:10;;;;;;;3.75;1.98;;;;;;;21.44;71.01;100715.44;21240173;27;20039;-71
2021/07/08 16:17:13;;;;;;;5.00;2.50;;;;;;;21.19;73.07;100721.25;21239973;27;20078;-69
2021/07/08 16:27:14;;;;;;;6.93;2.40;;;;;;;20.40;75.25;100720.97;21240159;27;20464;-69
2021/07/08 16:37:38;;;;;;;5.72;2.58;;;;;;;20.40;75.17;100723.63;21239008;27;20050;-69
2021/07/08 16:47:40;;;;;;;4.57;2.40;;;;;;;20.64;73.18;100708.22;21238224;27;20051;-69
2021/07/08 16:57:42;;;;;;;8.77;2.63;;;;;;;20.55;74.23;100719.34;21236520;27;20550;-68
2021/07/08 17:07:44;;;;;;;9.13;2.75;;;;;;;20.30;74.73;100733.03;21235591;28;20457;-69
2021/07/08 17:17:46;;;;;;;5.35;2.13;;;;;;;19.84;73.12;100755.72;21236422;28;20051;-68
2021/07/08 17:27:48;;;;;;;3.42;1.55;;;;;;;19.16;73.57;100773.91;21229988;28;20104;-69
2021/07/08 17:37:54;;;;;;;4.88;1.70;;;;;;;18.66;78.18;100764.59;21234768;28;20118;-69
2021/07/08 17:47:57;;;;;;;4.25;1.70;;;;;;;18.27;78.19;100771.59;21234068;28;20420;-69
2021/07/08 17:57:58;;;;;;;6.78;1.75;;;;;;;18.43;77.71;100772.66;21238528;27;20044;-69
2021/07/08 18:08:00;;;;;;;7.05;2.00;;;;;;;18.20;77.36;100777.16;21249542;27;20055;-69
2021/07/08 18:18:01;;;;;;;3.35;1.50;;;;;;;18.21;79.06;100778.00;21248515;27;20093;-69
2021/07/08 18:28:05;;;;;;;3.55;1.67;;;;;;;18.43;77.46;100776.16;21248733;27;20044;-69
2021/07/08 18:38:06;;;;;;;8.43;1.70;;;;;;;18.30;79.06;100784.69;21246626;27;20405;-70
2021/07/08 18:48:08;;;;;;;3.90;1.40;;;;;;;18.27;77.16;100795.44;21229222;27;20058;-70
2021/07/08 18:58:10;;;;;;;4.35;1.60;;;;;;;18.32;76.47;100789.03;21245034;27;20039;-68
2021/07/08 19:08:12;;;;;;;4.43;1.63;;;;;;;18.29;77.53;100775.03;21244971;27;20039;-69
2021/07/08 19:18:14;;;;;;;5.28;1.60;;;;;;;18.21;78.00;100788.63;21244077;27;20047;-69
2021/07/08 19:28:17;;;;;;;7.63;1.42;;;;;;;18.24;78.25;100806.16;21243758;27;20290;-69
2021/07/08 19:38:19;;;;;;;8.02;1.73;;;;;;;18.17;78.13;100826.75;21242144;27;20047;-71
2021/07/08 19:48:21;;;;;;;4.50;1.73;;;;;;;17.90;80.20;100837.53;21241725;27;20093;-70
2021/07/08 19:58:23;;;;;;;5.47;1.50;;;;;;;17.78;79.66;100863.63;21239989;27;20039;-70
2021/07/08 20:08:25;;;;;;;3.30;1.40;;;;;;;17.83;77.65;100853.72;21239537;27;20039;-70
2021/07/08 20:18:36;;;;;;;3.72;1.58;;;;;;;17.74;79.08;100841.69;21239754;27;20043;-70
2021/07/08 20:28:37;;;;;;;3.90;1.45;;;;;;;17.81;79.15;100829.94;21239054;27;20051;-70
2021/07/08 20:38:39;;;;;;;5.53;1.63;;;;;;;17.72;79.39;100830.25;21237496;27;20100;-70
2021/07/08 20:48:43;;;;;;;2.50;1.33;;;;;;;17.65;80.28;100824.34;21237206;27;20047;-71
2021/07/08 20:58:46;;;;;;;6.30;1.88;;;;;;;17.53;81.07;100830.06;21236504;27;20050;-68
2021/07/08 21:08:48;;;;;;;4.65;1.80;;;;;;;17.42;81.74;100833.13;21235339;28;20065;-71
2021/07/08 21:18:50;;;;;;;6.30;1.85;;;;;;;17.37;82.11;100828.94;21237480;28;20047;-70
2021/07/08 21:28:52;;;;;;;6.20;2.15;;;;;;;17.33;83.04;100833.47;21238014;27;20043;-71
2021/07/08 21:38:54;;;;;;;7.07;2.53;;;;;;;17.29;83.34;100842.44;21234713;27;20550;-70
2021/07/08 21:48:57;;;;;;;5.30;2.30;;;;;;;17.40;82.95;100847.38;21252171;27;20069;-71
2021/07/08 21:59:00;;;;;;;8.55;2.28;;;;;;;17.40;83.35;100852.66;21250074;27;20116;-70
2021/07/08 22:09:05;;;;;;;5.70;2.42;;;;;;;17.37;83.46;100850.13;21248159;27;20444;-70
2021/07/08 22:19:06;;;;;;;10.55;2.33;;;;;;;17.31;84.03;100853.84;21248946;27;20096;-70
2021/07/08 22:29:08;;;;;;;4.93;2.55;;;;;;;17.31;84.14;100853.00;21248528;27;20062;-70
2021/07/08 22:39:10;;;;;;;6.68;2.65;;;;;;;17.27;83.98;100851.38;21246956;27;20039;-69
2021/07/08 22:49:13;;;;;;;5.55;2.50;;;;;;;17.21;84.37;100854.25;21246239;27;20494;-70
2021/07/08 22:59:14;;;;;;;6.28;2.45;;;;;;;17.24;84.71;100859.41;21245613;27;20051;-70
2021/07/08 23:09:17;;;;;;;7.47;2.88;;;;;;;17.18;84.79;100858.72;21244571;27;20416;-70
2021/07/08 23:19:20;;;;;;;9.00;3.08;;;;;;;17.17;84.61;100848.19;21244580;27;20084;-70
2021/07/08 23:29:22;;;;;;;5.85;2.55;;;;;;;17.17;84.17;100843.75;21225098;27;20668;-70
